Time;durP1;ratioP1;P1;durP2;ratioP2;P2;SDS_P1;SDS_P2;PMS_P1;PMS_P2;Temp;Humidity;BMP_temperature;BMP_pressure;BME280_temperature;BME280_humidity;BME280_pressure;Samples;Min_cycle;Max_cycle;Signal;HPM_P1;HPM_P2
2020/12/10 00:02:30;;;;;;;301.63;86.35;;;;;;;-0.96;100.00;100570.78;5019728;28;20047;-85
2020/12/10 00:04:55;;;;;;;295.52;85.72;;;;;;;-0.93;100.00;100567.94;5027227;28;20038;-84
2020/12/10 00:07:22;;;;;;;323.67;88.57;;;;;;;-0.97;100.00;100563.81;5041332;28;20071;-83
2020/12/10 00:09:49;;;;;;;276.85;76.65;;;;;;;-0.98;100.00;100572.66;5040128;28;20096;-83
2020/12/10 00:12:16;;;;;;;281.40;86.13;;;;;;;-0.93;100.00;100571.41;5043967;28;20076;-85
2020/12/10 00:14:41;;;;;;;286.23;88.50;;;;;;;-0.87;100.00;100570.19;5031843;28;20500;-82
2020/12/10 00:17:06;;;;;;;307.05;85.30;;;;;;;-0.90;100.00;100567.75;5018522;28;20041;-83
2020/12/10 00:19:32;;;;;;;276.08;84.05;;;;;;;-0.91;100.00;100558.16;5042101;28;20118;-84
2020/12/10 00:21:57;;;;;;;268.17;79.25;;;;;;;-0.91;100.00;100558.16;5047792;28;20045;-86
2020/12/10 00:24:23;;;;;;;264.33;82.22;;;;;;;-0.84;100.00;100569.16;5058606;28;20377;-85
2020/12/10 00:26:49;;;;;;;252.32;81.43;;;;;;;-0.86;100.00;100566.63;5046852;28;20128;-85
2020/12/10 00:29:16;;;;;;;261.45;81.88;;;;;;;-0.85;100.00;100567.47;5025569;28;20045;-83
2020/12/10 00:31:42;;;;;;;243.00;75.25;;;;;;;-0.87;100.00;100567.56;5018756;28;20432;-84
2020/12/10 00:34:07;;;;;;;244.88;78.25;;;;;;;-0.82;100.00;100564.63;5028836;28;20115;-86
2020/12/10 00:36:33;;;;;;;246.80;75.10;;;;;;;-0.86;100.00;100571.03;5030709;28;20065;-83
2020/12/10 00:38:58;;;;;;;230.55;74.80;;;;;;;-0.84;100.00;100563.88;5031775;28;20049;-83
2020/12/10 00:41:24;;;;;;;236.27;76.32;;;;;;;-0.84;100.00;100569.16;5032380;28;20087;-84
2020/12/10 00:43:49;;;;;;;241.27;74.53;;;;;;;-0.83;100.00;100557.69;5043698;28;20466;-83
2020/12/10 00:46:15;;;;;;;233.25;75.78;;;;;;;-0.81;100.00;100561.06;5034266;28;20037;-84
2020/12/10 00:48:40;;;;;;;227.52;71.47;;;;;;;-0.83;100.00;100553.25;5046820;28;20048;-83
2020/12/10 00:51:08;;;;;;;230.40;72.50;;;;;;;-0.91;100.00;100553.72;5049480;28;20546;-84
2020/12/10 00:53:33;;;;;;;235.88;75.00;;;;;;;-0.88;100.00;100542.16;5033548;28;20503;-84
2020/12/10 00:55:59;;;;;;;224.07;71.90;;;;;;;-0.93;100.00;100544.22;5024048;28;20037;-83
2020/12/10 00:58:24;;;;;;;230.50;73.90;;;;;;;-0.96;100.00;100547.91;5026715;28;20566;-83
2020/12/10 01:00:51;;;;;;;225.05;72.43;;;;;;;-0.97;100.00;100546.22;5030237;28;20041;-83
2020/12/10 01:03:17;;;;;;;219.93;71.68;;;;;;;-1.01;100.00;100541.22;5029364;28;20111;-84
2020/12/10 01:05:42;;;;;;;221.52;72.05;;;;;;;-1.03;100.00;100541.34;5030004;28;20048;-83
2020/12/10 01:08:08;;;;;;;216.40;71.18;;;;;;;-1.07;100.00;100534.56;5039783;28;20068;-84
2020/12/10 01:10:33;;;;;;;215.60;69.15;;;;;;;-1.09;100.00;100532.94;5050622;28;20372;-84
2020/12/10 01:12:59;;;;;;;233.82;71.68;;;;;;;-1.06;100.00;100533.63;5049394;28;20076;-82
2020/12/10 01:15:25;;;;;;;244.90;76.95;;;;;;;-1.08;100.00;100530.25;5041767;28;20042;-84
2020/12/10 01:17:50;;;;;;;238.43;72.20;;;;;;;-1.09;100.00;100532.94;5037474;28;20033;-85
2020/12/10 01:20:16;;;;;;;240.60;75.82;;;;;;;-1.12;100.00;100539.28;5035215;28;20408;-84
2020/12/10 01:22:41;;;;;;;261.40;77.55;;;;;;;-1.09;100.00;100531.19;5015229;28;20045;-83
2020/12/10 01:25:07;;;;;;;267.20;76.00;;;;;;;-1.10;100.00;100523.38;5046787;28;20526;-83
2020/12/10 01:27:32;;;;;;;279.95;77.10;;;;;;;-1.10;100.00;100526.00;5045328;28;20076;-83
2020/12/10 01:29:58;;;;;;;245.68;73.60;;;;;;;-1.10;100.00;100516.31;5040049;28;20045;-83
2020/12/10 01:32:25;;;;;;;270.85;76.65;;;;;;;-1.11;100.00;100519.06;5046716;28;20048;-85
2020/12/10 01:34:51;;;;;;;265.40;75.93;;;;;;;-1.14;100.00;100520.94;5043382;28;20484;-86
2020/12/10 01:37:18;;;;;;;253.10;73.05;;;;;;;-1.13;100.00;100519.97;5042954;28;20589;-83
2020/12/10 01:39:44;;;;;;;263.17;78.35;;;;;;;-1.13;100.00;100522.63;5045926;28;20038;-85
2020/12/10 01:42:09;;;;;;;259.73;74.88;;;;;;;-1.17;100.00;100515.88;5043463;28;20053;-86
2020/12/10 01:44:35;;;;;;;245.15;72.18;;;;;;;-1.17;100.00;100515.88;5063521;28;20045;-85
2020/12/10 01:47:00;;;;;;;263.10;73.40;;;;;;;-1.17;100.00;100517.66;5043639;28;20049;-83
2020/12/10 01:49:26;;;;;;;263.05;77.75;;;;;;;-1.14;100.00;100515.66;5033576;28;20441;-84
2020/12/10 01:51:52;;;;;;;240.23;68.50;;;;;;;-1.20;100.00;100518.69;5048580;28;20136;-84
2020/12/10 01:54:18;;;;;;;254.00;73.97;;;;;;;-1.16;100.00;100517.53;5055854;28;20084;-84
2020/12/10 01:56:43;;;;;;;257.77;75.18;;;;;;;-1.15;100.00;100508.72;5032136;28;20491;-84
2020/12/10 01:59:11;;;;;;;241.60;70.05;;;;;;;-1.21;100.00;100509.09;5041558;28;20402;-83
2020/12/10 02:01:37;;;;;;;256.17;74.07;;;;;;;-1.21;100.00;100511.75;5044601;28;20094;-85
2020/12/10 02:04:02;;;;;;;275.48;78.57;;;;;;;-1.18;100.00;100501.00;5062234;28;20056;-84
2020/12/10 02:06:28;;;;;;;254.90;73.47;;;;;;;-1.18;100.00;100502.78;5047992;28;20124;-82
2020/12/10 02:08:54;;;;;;;259.17;74.05;;;;;;;-1.16;100.00;100501.75;5044054;28;20041;-85
2020/12/10 02:11:19;;;;;;;266.48;76.72;;;;;;;-1.13;100.00;100501.53;5040343;28;20030;-85
2020/12/10 02:13:45;;;;;;;258.17;72.22;;;;;;;-1.14;100.00;100497.22;5028747;28;20049;-85
2020/12/10 02:16:10;;;;;;;251.52;72.95;;;;;;;-1.15;100.00;100508.72;5038140;28;20033;-84
2020/12/10 02:18:36;;;;;;;242.38;72.38;;;;;;;-1.13;100.00;100508.59;5043326;28;20095;-84
2020/12/10 02:21:03;;;;;;;236.55;71.40;;;;;;;-1.15;100.00;100511.34;5027861;28;20060;-86
2020/12/10 02:23:28;;;;;;;249.10;73.00;;;;;;;-1.16;100.00;100503.53;5014144;28;20113;-83
2020/12/10 02:25:53;;;;;;;224.32;69.90;;;;;;;-1.16;100.00;100507.00;5021602;28;20145;-83
2020/12/10 02:28:19;;;;;;;243.52;71.80;;;;;;;-1.10;100.00;100513.69;5036262;28;20049;-83
2020/12/10 02:30:46;;;;;;;248.07;74.47;;;;;;;-1.08;100.00;100513.59;5030858;28;20558;-85
2020/12/10 02:33:13;;;;;;;229.55;74.70;;;;;;;-1.07;100.00;100507.38;5035837;28;20042;-83
2020/12/10 02:35:40;;;;;;;224.50;69.60;;;;;;;-1.09;100.00;100498.72;5041792;28;20110;-83
2020/12/10 02:38:08;;;;;;;224.35;69.60;;;;;;;-1.07;100.00;100489.78;5043510;28;20052;-83
2020/12/10 02:40:43;;;;;;;225.48;70.68;;;;;;;-1.05;100.00;100489.69;5025220;28;20034;-85
2020/12/10 02:43:10;;;;;;;211.05;69.90;;;;;;;-1.08;100.00;100476.72;5047485;28;20045;-83
2020/12/10 02:45:37;;;;;;;221.00;66.32;;;;;;;-1.04;100.00;100480.84;5017223;28;20034;-84
2020/12/10 02:48:03;;;;;;;205.13;66.07;;;;;;;-1.05;100.00;100474.75;5046340;28;20128;-84
2020/12/10 02:50:30;;;;;;;214.93;66.88;;;;;;;-1.07;100.00;100475.78;5023538;28;20053;-83
2020/12/10 02:52:55;;;;;;;206.45;68.07;;;;;;;-1.09;100.00;100465.34;5028159;28;20037;-83
2020/12/10 02:55:21;;;;;;;198.27;60.60;;;;;;;-1.13;100.00;100463.84;5045064;28;20072;-84
2020/12/10 02:57:46;;;;;;;205.52;61.40;;;;;;;-1.14;100.00;100463.00;5022721;28;20056;-85
2020/12/10 03:00:12;;;;;;;204.05;61.53;;;;;;;-1.13;100.00;100463.84;5033403;28;20515;-82
2020/12/10 03:02:38;;;;;;;194.60;55.83;;;;;;;-1.13;100.00;100461.22;5028996;28;20111;-85
2020/12/10 03:05:07;;;;;;;202.05;62.75;;;;;;;-1.11;100.00;100458.50;5039605;28;20565;-86
2020/12/10 03:07:34;;;;;;;199.57;64.93;;;;;;;-1.08;100.00;100461.75;5041729;28;20081;-85
2020/12/10 03:10:03;;;;;;;190.68;62.95;;;;;;;-1.10;100.00;100454.91;5043623;28;20134;-84
2020/12/10 03:12:29;;;;;;;192.10;64.90;;;;;;;-1.07;100.00;100452.06;5058291;28;20040;-83
2020/12/10 03:14:55;;;;;;;183.73;56.60;;;;;;;-1.10;100.00;100447.00;5057862;28;20037;-86
2020/12/10 03:17:20;;;;;;;176.70;60.88;;;;;;;-1.07;100.00;100441.53;5047942;28;20036;-84
2020/12/10 03:19:48;;;;;;;185.73;59.38;;;;;;;-1.03;100.00;100443.06;5018548;28;20491;-85
2020/12/10 03:22:14;;;;;;;171.55;62.60;;;;;;;-1.01;100.00;100438.50;5041782;28;20191;-84
2020/12/10 03:24:40;;;;;;;168.70;59.00;;;;;;;-1.02;100.00;100434.19;5056646;28;20048;-86
2020/12/10 03:27:06;;;;;;;163.23;56.75;;;;;;;-1.05;100.00;100435.22;5042834;28;20037;-85
2020/12/10 03:29:31;;;;;;;178.25;63.05;;;;;;;-1.00;100.00;100427.88;5056917;28;20041;-85
2020/12/10 03:31:58;;;;;;;179.93;60.10;;;;;;;-0.98;100.00;100430.41;5031840;28;20070;-86
2020/12/10 03:34:24;;;;;;;168.43;57.38;;;;;;;-1.01;100.00;100422.69;5044474;28;20044;-85
2020/12/10 03:36:52;;;;;;;180.80;58.20;;;;;;;-1.02;100.00;100421.03;5059510;28;20049;-84
2020/12/10 03:39:19;;;;;;;155.27;56.40;;;;;;;-1.06;100.00;100420.38;5048504;28;20051;-86
2020/12/10 03:41:46;;;;;;;162.80;58.10;;;;;;;-1.05;100.00;100421.22;5049519;28;20045;-85
2020/12/10 03:44:12;;;;;;;168.65;57.42;;;;;;;-1.02;100.00;100423.66;5049480;28;20128;-84
2020/12/10 03:46:38;;;;;;;152.98;56.25;;;;;;;-1.02;100.00;100421.84;5043813;28;20128;-85
2020/12/10 03:49:04;;;;;;;155.15;56.47;;;;;;;-1.00;100.00;100419.16;5042318;28;20498;-85
2020/12/10 03:51:29;;;;;;;157.50;55.65;;;;;;;-1.01;100.00;100418.28;5046387;28;20140;-84
2020/12/10 03:53:55;;;;;;;160.93;55.45;;;;;;;-1.00;100.00;100416.50;5042740;28;20461;-83
2020/12/10 03:56:20;;;;;;;168.60;56.35;;;;;;;-1.00;100.00;100416.50;5030724;28;20051;-84
2020/12/10 03:58:45;;;;;;;153.05;54.20;;;;;;;-1.00;100.00;100417.34;5042579;28;20033;-84
2020/12/10 04:01:11;;;;;;;150.32;55.50;;;;;;;-1.04;100.00;100415.84;5048535;28;20055;-85
2020/12/10 04:03:37;;;;;;;154.23;55.65;;;;;;;-1.03;100.00;100422.81;5028950;28;20068;-84
2020/12/10 04:06:02;;;;;;;164.00;55.60;;;;;;;-1.03;100.00;100421.97;5043104;28;20084;-84
2020/12/10 04:08:27;;;;;;;155.40;55.60;;;;;;;-1.06;100.00;100415.13;5048071;28;20075;-84
2020/12/10 04:10:53;;;;;;;137.52;50.42;;;;;;;-1.10;100.00;100408.34;5062189;28;20132;-84
2020/12/10 04:13:18;;;;;;;159.38;55.05;;;;;;;-1.09;100.00;100407.41;5034778;28;20069;-82
2020/12/10 04:15:44;;;;;;;169.77;56.55;;;;;;;-1.12;100.00;100404.97;5031564;28;20052;-84
2020/12/10 04:18:10;;;;;;;166.13;54.25;;;;;;;-1.17;100.00;100405.25;5025650;28;20635;-83
2020/12/10 04:20:35;;;;;;;168.07;55.97;;;;;;;-1.15;100.00;100407.81;5026571;28;20045;-83
2020/12/10 04:23:02;;;;;;;167.68;54.78;;;;;;;-1.16;100.00;100406.09;5041051;28;20056;-85
2020/12/10 04:25:28;;;;;;;161.85;54.55;;;;;;;-1.17;100.00;100409.69;5046258;28;20044;-85
2020/12/10 04:27:53;;;;;;;169.43;55.67;;;;;;;-1.19;100.00;100414.19;5029976;28;20044;-84
2020/12/10 04:30:21;;;;;;;168.73;56.22;;;;;;;-1.19;100.00;100407.13;5031882;28;20041;-83
2020/12/10 04:32:47;;;;;;;169.50;56.28;;;;;;;-1.24;100.00;100403.94;5034004;28;20080;-86
2020/12/10 04:35:14;;;;;;;162.15;53.20;;;;;;;-1.23;100.00;100405.66;5032876;28;20029;-86
2020/12/10 04:37:41;;;;;;;160.00;55.78;;;;;;;-1.24;100.00;100403.94;5055827;28;20487;-84
2020/12/10 04:40:08;;;;;;;165.93;56.30;;;;;;;-1.21;100.00;100403.78;5045877;28;20040;-84
2020/12/10 04:42:35;;;;;;;171.30;56.80;;;;;;;-1.22;100.00;100399.44;5027903;28;20046;-85
2020/12/10 04:45:02;;;;;;;174.13;57.60;;;;;;;-1.24;100.00;100398.69;5039897;28;20040;-86
2020/12/10 04:47:30;;;;;;;159.35;53.95;;;;;;;-1.29;100.00;100403.44;5059547;28;20522;-84
2020/12/10 04:50:00;;;;;;;168.02;55.47;;;;;;;-1.31;100.00;100400.03;5052434;28;20049;-85
2020/12/10 04:52:26;;;;;;;157.88;52.47;;;;;;;-1.34;100.00;100408.13;5042828;28;20483;-84
2020/12/10 04:54:55;;;;;;;162.93;54.80;;;;;;;-1.38;100.00;100402.22;5046725;28;20051;-83
2020/12/10 04:57:20;;;;;;;165.77;55.58;;;;;;;-1.37;100.00;100405.69;5051879;28;20408;-84
2020/12/10 04:59:47;;;;;;;166.02;54.65;;;;;;;-1.40;100.00;100403.25;5038414;28;20666;-85
2020/12/10 05:02:13;;;;;;;171.23;56.10;;;;;;;-1.40;100.00;100401.47;5021574;28;20449;-83
2020/12/10 05:04:40;;;;;;;162.82;56.42;;;;;;;-1.39;100.00;100394.41;5057366;28;20116;-84
2020/12/10 05:07:05;;;;;;;165.85;55.47;;;;;;;-1.45;100.00;100394.81;5047336;28;20079;-83
2020/12/10 05:09:32;;;;;;;158.70;53.90;;;;;;;-1.52;100.00;100404.88;5038689;28;20099;-84
2020/12/10 05:11:59;;;;;;;148.48;53.05;;;;;;;-1.54;100.00;100405.91;5043350;28;20045;-84
2020/12/10 05:14:43;;;;;;;161.27;53.85;;;;;;;-1.55;100.00;100398.94;5040722;28;20082;-84
2020/12/10 05:17:15;;;;;;;158.40;53.45;;;;;;;-1.58;100.00;100400.00;5041347;28;20502;-83
2020/12/10 05:19:57;;;;;;;160.25;52.10;;;;;;;-1.58;100.00;100407.91;5042119;28;20407;-84
2020/12/10 05:22:24;;;;;;;157.05;55.42;;;;;;;-1.59;100.00;100409.66;5046016;28;20046;-83
2020/12/10 05:25:03;;;;;;;149.52;53.45;;;;;;;-1.57;100.00;100400.84;5046928;28;20084;-85
2020/12/10 05:27:30;;;;;;;144.95;51.85;;;;;;;-1.64;100.00;100406.50;5030493;28;20041;-84
2020/12/10 05:29:56;;;;;;;155.25;52.13;;;;;;;-1.64;100.00;100410.88;5050214;28;20069;-84
2020/12/10 05:32:35;;;;;;;147.40;53.35;;;;;;;-1.67;100.00;100413.72;5034668;28;20128;-83
2020/12/10 05:35:23;;;;;;;155.73;54.45;;;;;;;-1.61;100.00;100427.34;5044422;28;20041;-82
2020/12/10 05:37:50;;;;;;;152.60;52.07;;;;;;;-1.65;100.00;100417.94;5044452;28;20542;-83
2020/12/10 05:40:17;;;;;;;144.88;51.90;;;;;;;-1.71;100.00;100413.06;5047154;28;20275;-84
2020/12/10 05:42:46;;;;;;;157.80;52.78;;;;;;;-1.73;100.00;100412.31;5019404;28;20049;-83
2020/12/10 05:45:17;;;;;;;147.55;52.13;;;;;;;-1.74;100.00;100410.63;5023545;28;20045;-85
2020/12/10 05:47:54;;;;;;;150.32;52.88;;;;;;;-1.76;100.00;100409.88;5026791;28;20080;-84
2020/12/10 05:50:24;;;;;;;146.23;54.28;;;;;;;-1.78;100.00;100422.28;5037995;28;20037;-83
2020/12/10 05:53:05;;;;;;;135.65;51.03;;;;;;;-1.75;100.00;100423.88;5057773;28;20063;-82
2020/12/10 05:55:36;;;;;;;146.68;51.53;;;;;;;-1.81;100.00;100422.47;5045416;28;20040;-85
2020/12/10 05:58:03;;;;;;;144.93;52.33;;;;;;;-1.82;100.00;100426.03;5038546;28;20042;-85
2020/12/10 06:00:30;;;;;;;139.85;53.00;;;;;;;-1.78;100.00;100421.41;5037083;28;20495;-84
2020/12/10 06:02:56;;;;;;;137.77;51.17;;;;;;;-1.77;100.00;100417.88;5052712;28;20060;-83
2020/12/10 06:05:23;;;;;;;133.98;49.63;;;;;;;-1.74;100.00;100421.16;5044022;28;20041;-82
2020/12/10 06:08:09;;;;;;;132.52;48.70;;;;;;;-1.74;100.00;100421.16;5052794;28;20056;-83
2020/12/10 06:10:39;;;;;;;128.00;48.85;;;;;;;-1.76;100.00;100422.19;5049713;28;20037;-85
2020/12/10 06:13:05;;;;;;;130.90;47.95;;;;;;;-1.80;100.00;100416.28;5056354;28;20087;-84
2020/12/10 06:15:34;;;;;;;135.02;50.72;;;;;;;-1.81;100.00;100422.47;5031227;28;20049;-84
2020/12/10 06:18:13;;;;;;;130.30;46.58;;;;;;;-1.83;100.00;100429.63;5026775;28;20049;-84
2020/12/10 06:20:51;;;;;;;134.68;50.15;;;;;;;-1.87;100.00;100430.72;5043274;28;20037;-82
2020/12/10 06:23:47;;;;;;;123.90;48.30;;;;;;;-1.88;100.00;100434.31;5008149;28;20132;-82
2020/12/10 06:26:25;;;;;;;129.48;47.88;;;;;;;-1.93;100.00;100431.09;5013208;28;20573;-85
2020/12/10 06:29:32;;;;;;;129.32;47.33;;;;;;;-1.98;100.00;100423.50;5036080;28;20064;-85
2020/12/10 06:32:00;;;;;;;149.85;52.85;;;;;;;-1.95;100.00;100427.75;5041319;28;20441;-83
2020/12/10 06:34:57;;;;;;;143.77;52.22;;;;;;;-1.93;100.00;100429.31;5049086;28;20107;-82
2020/12/10 06:37:33;;;;;;;164.73;53.35;;;;;;;-1.90;100.00;100438.81;4997161;28;20042;-83
2020/12/10 06:40:04;;;;;;;186.10;57.28;;;;;;;-1.89;100.00;100433.47;5007554;28;20446;-83
2020/12/10 06:42:46;;;;;;;178.15;57.70;;;;;;;-1.87;100.00;100425.47;5028870;28;20135;-84
2020/12/10 06:45:35;;;;;;;187.80;56.92;;;;;;;-1.86;100.00;100429.81;5034602;28;20468;-85
2020/12/10 06:48:07;;;;;;;;;;;;;;;-1.90;100.00;100426.53;5038308;28;20041;-83
2020/12/10 06:50:38;;;;;;;216.35;60.65;;;;;;;-1.95;100.00;100423.31;5039449;28;19923;-83
2020/12/10 06:53:18;;;;;;;210.13;59.17;;;;;;;-1.90;100.00;100431.78;5042015;28;20051;-84
2020/12/10 06:55:56;;;;;;;215.05;60.90;;;;;;;-1.92;100.00;100427.56;5027725;28;20099;-81
2020/12/10 06:58:34;;;;;;;205.80;59.30;;;;;;;-1.89;100.00;100432.63;5039788;28;20582;-82
2020/12/10 07:00:59;;;;;;;213.52;61.28;;;;;;;-1.89;100.00;100424.72;5036614;28;20052;-84
2020/12/10 07:03:34;;;;;;;214.93;64.68;;;;;;;-1.83;100.00;100422.56;5043476;28;20110;-83
2020/12/10 07:06:18;;;;;;;251.35;61.78;;;;;;;-1.83;100.00;100426.97;5039739;28;20048;-83
2020/12/10 07:09:04;;;;;;;254.57;63.75;;;;;;;-1.86;100.00;100428.00;5037669;28;20045;-84
2020/12/10 07:11:34;;;;;;;318.98;67.80;;;;;;;-1.89;100.00;100424.72;5048636;28;20041;-82
2020/12/10 07:14:01;;;;;;;335.83;70.55;;;;;;;-1.90;100.00;100429.16;5026459;28;20057;-84
2020/12/10 07:16:31;;;;;;;281.25;66.40;;;;;;;-1.90;100.00;100438.81;5041942;28;20127;-84
2020/12/10 07:18:57;;;;;;;306.35;70.47;;;;;;;-1.92;100.00;100438.06;5041661;28;20048;-84
2020/12/10 07:21:24;;;;;;;270.58;71.32;;;;;;;-1.89;100.00;100437.88;5032911;28;20073;-83
2020/12/10 07:23:50;;;;;;;266.25;63.72;;;;;;;-1.92;100.00;100433.66;5029282;28;20189;-82
2020/12/10 07:26:17;;;;;;;283.42;66.32;;;;;;;-1.90;100.00;100441.44;5045349;28;20041;-82
2020/12/10 07:28:51;;;;;;;242.30;61.65;;;;;;;-1.93;100.00;100437.19;5023707;28;20431;-83
2020/12/10 07:31:17;;;;;;;245.95;59.03;;;;;;;-1.94;100.00;100439.94;5041521;28;20041;-83
2020/12/10 07:33:44;;;;;;;241.48;64.03;;;;;;;-1.93;100.00;100431.94;5042581;28;20063;-83
2020/12/10 07:36:10;;;;;;;237.60;63.53;;;;;;;-1.93;100.00;100441.63;5039706;28;20048;-82
2020/12/10 07:38:35;;;;;;;241.80;64.70;;;;;;;-1.93;100.00;100431.94;5040568;28;20045;-83
2020/12/10 07:41:06;;;;;;;251.82;67.68;;;;;;;-1.89;100.00;100441.34;5053653;28;20045;-83
2020/12/10 07:43:31;;;;;;;256.40;66.03;;;;;;;-1.91;100.00;100443.22;5035260;28;20037;-82
2020/12/10 07:45:57;;;;;;;245.40;63.55;;;;;;;-1.92;100.00;100446.81;5042850;28;20048;-82
2020/12/10 07:48:22;;;;;;;273.38;71.07;;;;;;;-1.85;100.00;100449.91;5011874;28;20203;-82
2020/12/10 07:50:48;;;;;;;272.50;65.53;;;;;;;-1.89;100.00;100451.03;5042979;28;20136;-84
2020/12/10 07:53:14;;;;;;;279.15;68.30;;;;;;;-1.86;100.00;100458.75;5043722;28;20040;-82
2020/12/10 07:55:59;;;;;;;309.20;72.30;;;;;;;-1.85;100.00;100455.16;5052658;28;20048;-83
2020/12/10 07:58:46;;;;;;;304.85;71.68;;;;;;;-1.88;100.00;100450.09;5040403;28;20091;-82
2020/12/10 08:01:14;;;;;;;290.05;73.45;;;;;;;-1.84;100.00;100441.09;5026825;28;20045;-83
2020/12/10 08:03:49;;;;;;;272.88;66.47;;;;;;;-1.84;100.00;100446.34;5041722;28;20128;-83
2020/12/10 08:06:16;;;;;;;278.00;69.38;;;;;;;-1.89;100.00;100443.16;5040613;28;20064;-84
2020/12/10 08:08:49;;;;;;;263.88;67.45;;;;;;;-1.90;100.00;100436.16;5035817;28;20577;-82
2020/12/10 08:11:19;;;;;;;271.80;68.90;;;;;;;-1.86;100.00;100443.78;5045485;28;20067;-82
2020/12/10 08:14:06;;;;;;;276.42;73.07;;;;;;;-1.86;100.00;100437.69;5041651;28;20060;-82
2020/12/10 08:16:37;;;;;;;287.67;74.03;;;;;;;-1.85;100.00;100439.38;5041477;28;20044;-81
2020/12/10 08:19:19;;;;;;;294.15;75.18;;;;;;;-1.83;100.00;100440.13;5037887;28;20073;-82
2020/12/10 08:21:46;;;;;;;283.77;72.80;;;;;;;-1.85;100.00;100439.38;5039106;28;20121;-83
2020/12/10 08:24:13;;;;;;;269.77;70.57;;;;;;;-1.89;100.00;100446.63;5040283;28;20037;-83
2020/12/10 08:26:41;;;;;;;277.75;69.43;;;;;;;-1.83;100.00;100434.88;5033146;28;20038;-82
2020/12/10 08:29:14;;;;;;;280.13;74.45;;;;;;;-1.81;100.00;100440.91;5032206;28;20041;-83
2020/12/10 08:31:40;;;;;;;272.75;71.00;;;;;;;-1.81;100.00;100440.91;5040411;28;20040;-82
2020/12/10 08:34:17;;;;;;;295.75;74.43;;;;;;;-1.81;100.00;100446.16;5060184;28;20045;-84
2020/12/10 08:36:43;;;;;;;297.38;72.60;;;;;;;-1.83;100.00;100442.78;5027083;28;20499;-83
2020/12/10 08:39:09;;;;;;;348.98;79.30;;;;;;;-1.83;100.00;100440.13;5048225;28;20049;-82
2020/12/10 08:41:35;;;;;;;314.77;75.78;;;;;;;-1.80;100.00;100436.47;5028681;28;20048;-83
2020/12/10 08:44:06;;;;;;;312.83;78.22;;;;;;;-1.78;100.00;100445.09;5039183;28;20049;-83
2020/12/10 08:46:35;;;;;;;339.58;76.88;;;;;;;-1.79;100.00;100441.63;5020109;28;20049;-83
2020/12/10 08:49:20;;;;;;;;;;;;;;;-1.80;100.00;100447.00;5050557;28;20041;-82
2020/12/10 08:51:50;;;;;;;326.23;74.07;;;;;;;-1.91;100.00;100451.13;5059821;28;19951;-83
2020/12/10 08:54:18;;;;;;;386.70;83.68;;;;;;;-1.85;100.00;100456.00;5048351;28;20090;-83
2020/12/10 08:57:01;;;;;;;343.70;77.43;;;;;;;-1.83;100.00;100456.75;5035256;28;20056;-83
2020/12/10 08:59:26;;;;;;;343.17;81.72;;;;;;;-1.75;100.00;100456.31;5026364;28;20045;-82
2020/12/10 09:02:09;;;;;;;347.98;86.47;;;;;;;-1.73;100.00;100449.13;5042814;28;20045;-81
2020/12/10 09:04:35;;;;;;;376.45;82.75;;;;;;;-1.70;100.00;100448.94;5040468;28;20037;-83
2020/12/10 09:07:02;;;;;;;349.17;78.82;;;;;;;-1.73;100.00;100450.94;5037624;28;20045;-84
2020/12/10 09:09:48;;;;;;;424.13;88.72;;;;;;;-1.72;100.00;100456.13;5028763;28;20492;-82
2020/12/10 09:12:14;;;;;;;368.58;76.70;;;;;;;-1.73;100.00;100459.66;5058795;28;20132;-82
2020/12/10 09:14:39;;;;;;;409.05;79.72;;;;;;;-1.78;100.00;100453.88;5045655;28;20174;-83
2020/12/10 09:17:06;;;;;;;342.13;78.63;;;;;;;-1.71;100.00;100456.94;5061201;28;20044;-83
2020/12/10 09:19:33;;;;;;;329.48;75.05;;;;;;;-1.69;100.00;100458.56;5044745;28;20056;-82
2020/12/10 09:21:58;;;;;;;371.88;78.50;;;;;;;-1.64;100.00;100459.13;5044491;28;20037;-84
2020/12/10 09:24:24;;;;;;;316.00;76.00;;;;;;;-1.61;100.00;100453.66;5039798;28;20491;-81
2020/12/10 09:26:49;;;;;;;290.58;74.80;;;;;;;-1.61;100.00;100453.66;5045568;28;20037;-82
2020/12/10 09:29:15;;;;;;;340.67;78.13;;;;;;;-1.56;100.00;100442.84;5044142;28;20041;-82
2020/12/10 09:31:42;;;;;;;317.55;76.40;;;;;;;-1.61;100.00;100444.94;5037938;28;20121;-83
2020/12/10 09:34:07;;;;;;;355.70;79.13;;;;;;;-1.57;100.00;100442.94;5029642;28;20108;-83
2020/12/10 09:36:33;;;;;;;276.63;74.95;;;;;;;-1.49;100.00;100451.22;5026199;28;20057;-83
2020/12/10 09:38:59;;;;;;;332.08;80.38;;;;;;;-1.50;100.00;100445.09;5039442;28;20539;-82
2020/12/10 09:41:26;;;;;;;287.90;75.45;;;;;;;-1.47;100.00;100444.06;5011261;28;20649;-82
2020/12/10 09:44:01;;;;;;;265.20;72.03;;;;;;;-1.49;100.00;100431.00;5028772;28;20045;-83
2020/12/10 09:46:33;;;;;;;348.77;79.80;;;;;;;-1.46;100.00;100437.88;5026935;28;20496;-82
2020/12/10 09:48:58;;;;;;;272.20;67.22;;;;;;;-1.49;100.00;100446.81;5015502;28;20185;-82
2020/12/10 09:51:24;;;;;;;305.67;80.07;;;;;;;-1.44;100.00;100444.72;5054132;28;20134;-82
2020/12/10 09:54:00;;;;;;;312.20;77.55;;;;;;;-1.39;100.00;100439.16;5041994;28;20041;-83
2020/12/10 09:56:45;;;;;;;366.67;81.88;;;;;;;-1.41;100.00;100441.03;5050526;28;20498;-83
2020/12/10 09:59:18;;;;;;;334.05;74.93;;;;;;;-1.42;100.00;100441.97;5024882;28;20128;-83
2020/12/10 10:01:46;;;;;;;340.70;82.00;;;;;;;-1.39;100.00;100433.91;5042424;28;20207;-83
2020/12/10 10:04:12;;;;;;;334.77;80.53;;;;;;;-1.39;100.00;100439.16;5045231;28;20518;-83
2020/12/10 10:06:42;;;;;;;412.23;94.32;;;;;;;-1.38;100.00;100438.25;5059796;28;20478;-83
2020/12/10 10:09:09;;;;;;;405.67;91.57;;;;;;;-1.37;100.00;100443.38;5045363;28;20067;-83
2020/12/10 10:11:34;;;;;;;331.48;83.25;;;;;;;-1.32;100.00;100435.22;5038464;28;20503;-83
2020/12/10 10:14:00;;;;;;;409.23;90.65;;;;;;;-1.32;100.00;100440.47;5026164;28;20068;-83
2020/12/10 10:16:29;;;;;;;417.58;90.10;;;;;;;-1.36;100.00;100434.53;5060235;28;20506;-83
2020/12/10 10:18:55;;;;;;;550.55;100.53;;;;;;;-1.32;100.00;100431.72;5027955;28;20495;-83
2020/12/10 10:21:22;;;;;;;472.50;91.68;;;;;;;-1.36;100.00;100438.97;5044964;28;20071;-83
2020/12/10 10:23:48;;;;;;;498.23;98.95;;;;;;;-1.32;100.00;100440.47;5042266;28;20055;-83
2020/12/10 10:26:14;;;;;;;399.23;86.28;;;;;;;-1.27;100.00;100430.47;5045616;28;20045;-83
2020/12/10 10:28:39;;;;;;;419.73;80.43;;;;;;;-1.30;100.00;100429.84;5044130;28;20099;-84
2020/12/10 10:31:08;;;;;;;362.98;80.00;;;;;;;-1.29;100.00;100429.75;5025695;28;20091;-83
2020/12/10 10:33:35;;;;;;;486.23;100.50;;;;;;;-1.23;100.00;100436.41;5040853;28;20051;-84
2020/12/10 10:36:02;;;;;;;352.92;87.43;;;;;;;-1.19;100.00;100437.91;5031519;28;20040;-83
2020/12/10 10:38:30;;;;;;;469.65;95.45;;;;;;;-1.14;100.00;100433.19;5049788;28;20120;-83
2020/12/10 10:40:56;;;;;;;392.88;87.45;;;;;;;-1.19;100.00;100432.63;5048797;28;20103;-84
2020/12/10 10:43:21;;;;;;;348.00;85.13;;;;;;;-1.22;100.00;100423.13;5049290;28;20432;-83
2020/12/10 10:45:47;;;;;;;334.30;87.95;;;;;;;-1.14;100.00;100436.66;5048209;28;20068;-84
2020/12/10 10:48:12;;;;;;;304.10;84.13;;;;;;;-1.15;100.00;100432.34;5050798;28;20041;-84
2020/12/10 10:50:37;;;;;;;368.80;87.05;;;;;;;-1.11;100.00;100429.53;5050595;28;20045;-84
2020/12/10 10:53:08;;;;;;;313.73;79.05;;;;;;;-1.15;100.00;100427.09;5043342;28;20395;-84
2020/12/10 10:55:38;;;;;;;309.77;79.55;;;;;;;-1.12;100.00;100426.06;5026075;28;20048;-84
2020/12/10 10:58:03;;;;;;;318.65;84.28;;;;;;;-1.14;100.00;100426.13;5043899;28;20407;-82
2020/12/10 11:00:30;;;;;;;345.42;79.25;;;;;;;-1.16;100.00;100419.28;5043409;28;20040;-83
2020/12/10 11:02:56;;;;;;;387.77;93.05;;;;;;;-1.09;100.00;100422.34;5038627;28;20044;-82